sensor_id;sensor_type;location;lat;lon;timestamp;pressure;altitude;pressure_sealevel;temperature;humidity
63665;BME280;49820;33.966;73.390;2023-04-10T01:29:31;79036.22;;;12.25;32.74
63665;BME280;49820;33.966;73.390;2023-04-10T01:32:38;79024.97;;;12.47;32.74
63665;BME280;49820;33.966;73.390;2023-04-10T01:35:08;79040.25;;;12.78;32.21
63665;BME280;49820;33.966;73.390;2023-04-10T01:46:00;79047.78;;;13.70;32.39
63665;BME280;49820;33.966;73.390;2023-04-10T01:51:30;79060.25;;;14.48;30.95
63665;BME280;49820;33.966;73.390;2023-04-10T01:58:31;79062.94;;;15.32;33.89
63665;BME280;49820;33.966;73.390;2023-04-10T02:05:19;79063.88;;;16.01;33.61
63665;BME280;49820;33.966;73.390;2023-04-10T02:10:43;79074.84;;;16.70;34.28
63665;BME280;49820;33.966;73.390;2023-04-10T02:16:51;79065.91;;;17.26;34.87
63665;BME280;49820;33.966;73.390;2023-04-10T02:22:58;79054.94;;;17.63;32.86
63665;BME280;49820;33.966;73.390;2023-04-10T02:26:07;79059.22;;;18.06;32.10
63665;BME280;49820;33.966;73.390;2023-04-10T02:32:45;79056.94;;;18.59;31.49
63665;BME280;49820;33.966;73.390;2023-04-10T02:36:59;79071.34;;;18.99;30.94
63665;BME280;49820;33.966;73.390;2023-04-10T02:39:29;79084.34;;;19.41;35.39
63665;BME280;49820;33.966;73.390;2023-04-10T02:42:33;79076.03;;;19.45;32.96
63665;BME280;49820;33.966;73.390;2023-04-10T02:45:02;79088.63;;;19.65;29.59
63665;BME280;49820;33.966;73.390;2023-04-10T02:48:07;79083.13;;;19.67;32.15
63665;BME280;49820;33.966;73.390;2023-04-10T02:51:10;79077.41;;;19.73;32.47
63665;BME280;49820;33.966;73.390;2023-04-10T02:54:14;79087.56;;;20.30;34.77
63665;BME280;49820;33.966;73.390;2023-04-10T02:57:18;79089.47;;;20.46;33.04
63665;BME280;49820;33.966;73.390;2023-04-10T02:59:50;79079.44;;;20.70;33.46
63665;BME280;49820;33.966;73.390;2023-04-10T03:02:54;79072.13;;;20.93;33.48
63665;BME280;49820;33.966;73.390;2023-04-10T03:05:58;79102.09;;;21.44;34.72
63665;BME280;49820;33.966;73.390;2023-04-10T03:09:03;79111.53;;;21.32;27.43
63665;BME280;49820;33.966;73.390;2023-04-10T03:12:06;79107.09;;;21.52;32.98
63665;BME280;49820;33.966;73.390;2023-04-10T03:15:10;79114.50;;;21.66;35.25
63665;BME280;49820;33.966;73.390;2023-04-10T03:17:40;79089.69;;;21.60;34.06
63665;BME280;49820;33.966;73.390;2023-04-10T03:20:44;79089.91;;;21.94;35.99
63665;BME280;49820;33.966;73.390;2023-04-10T03:23:13;79122.75;;;22.28;33.82
63665;BME280;49820;33.966;73.390;2023-04-10T03:26:17;79127.50;;;22.40;34.37
63665;BME280;49820;33.966;73.390;2023-04-10T03:29:04;79098.47;;;22.24;32.25
63665;BME280;49820;33.966;73.390;2023-04-10T03:32:08;79138.66;;;22.85;39.33
63665;BME280;49820;33.966;73.390;2023-04-10T03:35:12;79139.03;;;23.02;30.80
63665;BME280;49820;33.966;73.390;2023-04-10T03:38:16;79129.81;;;22.71;28.41
63665;BME280;49820;33.966;73.390;2023-04-10T03:40:46;79073.56;;;22.19;30.06
63665;BME280;49820;33.966;73.390;2023-04-10T03:43:18;79138.91;;;22.55;29.87
63665;BME280;49820;33.966;73.390;2023-04-10T03:46:05;79139.53;;;22.68;31.39
63665;BME280;49820;33.966;73.390;2023-04-10T03:49:09;79144.44;;;22.66;31.00
63665;BME280;49820;33.966;73.390;2023-04-10T03:51:39;79153.84;;;22.56;32.80
63665;BME280;49820;33.966;73.390;2023-04-10T03:54:43;79156.38;;;22.35;30.22
63665;BME280;49820;33.966;73.390;2023-04-10T03:57:22;79156.59;;;22.31;32.14
63665;BME280;49820;33.966;73.390;2023-04-10T04:00:26;79156.38;;;22.22;31.82
63665;BME280;49820;33.966;73.390;2023-04-10T04:03:07;79162.59;;;22.08;33.96
63665;BME280;49820;33.966;73.390;2023-04-10T04:05:49;79170.97;;;22.42;31.20
63665;BME280;49820;33.966;73.390;2023-04-10T04:08:37;79168.50;;;22.00;32.99
63665;BME280;49820;33.966;73.390;2023-04-10T04:11:41;79099.44;;;20.77;33.12
63665;BME280;49820;33.966;73.390;2023-04-10T04:14:28;79173.56;;;20.88;33.27
63665;BME280;49820;33.966;73.390;2023-04-10T04:17:32;79172.25;;;20.60;32.82
63665;BME280;49820;33.966;73.390;2023-04-10T04:20:08;79171.19;;;20.40;35.04
63665;BME280;49820;33.966;73.390;2023-04-10T04:23:12;79181.84;;;20.29;31.10
63665;BME280;49820;33.966;73.390;2023-04-10T04:26:16;79185.47;;;19.96;32.36
63665;BME280;49820;33.966;73.390;2023-04-10T04:29:03;79156.75;;;20.01;36.50
63665;BME280;49820;33.966;73.390;2023-04-10T04:31:38;79171.53;;;19.75;32.37
63665;BME280;49820;33.966;73.390;2023-04-10T04:34:26;79173.22;;;19.68;35.98
63665;BME280;49820;33.966;73.390;2023-04-10T04:37:13;79169.63;;;19.42;32.61
63665;BME280;49820;33.966;73.390;2023-04-10T04:40:16;79170.63;;;19.05;33.81
63665;BME280;49820;33.966;73.390;2023-04-10T04:47:20;79189.38;;;18.94;34.56
63665;BME280;49820;33.966;73.390;2023-04-10T04:50:09;79176.00;;;18.59;33.03
63665;BME280;49820;33.966;73.390;2023-04-10T04:52:56;79194.94;;;18.42;36.46
63665;BME280;49820;33.966;73.390;2023-04-10T04:56:01;79197.22;;;18.69;35.95
63665;BME280;49820;33.966;73.390;2023-04-10T04:58:49;79167.50;;;18.36;33.22
63665;BME280;49820;33.966;73.390;2023-04-10T05:01:36;79165.81;;;18.11;33.85
63665;BME280;49820;33.966;73.390;2023-04-10T05:04:40;79154.19;;;17.81;34.41
63665;BME280;49820;33.966;73.390;2023-04-10T05:07:32;79185.97;;;18.14;36.34
63665;BME280;49820;33.966;73.390;2023-04-10T05:10:36;79188.50;;;18.18;37.64
63665;BME280;49820;33.966;73.390;2023-04-10T05:13:40;79198.31;;;18.09;35.18
63665;BME280;49820;33.966;73.390;2023-04-10T05:16:44;79189.00;;;18.06;38.85
63665;BME280;49820;33.966;73.390;2023-04-10T05:19:31;79182.59;;;17.97;34.36
63665;BME280;49820;33.966;73.390;2023-04-10T05:22:35;79191.31;;;18.00;33.69
63665;BME280;49820;33.966;73.390;2023-04-10T05:25:22;79199.06;;;17.91;34.82
63665;BME280;49820;33.966;73.390;2023-04-10T05:28:27;79167.13;;;17.79;35.50
63665;BME280;49820;33.966;73.390;2023-04-10T05:31:31;79198.00;;;18.01;33.74
63665;BME280;49820;33.966;73.390;2023-04-10T05:34:14;79158.09;;;17.68;33.61
63665;BME280;49820;33.966;73.390;2023-04-10T05:37:01;79190.88;;;18.10;34.79
63665;BME280;49820;33.966;73.390;2023-04-10T05:39:50;79157.53;;;17.99;34.57
63665;BME280;49820;33.966;73.390;2023-04-10T05:42:53;79188.56;;;18.16;33.40
63665;BME280;49820;33.966;73.390;2023-04-10T05:45:29;79173.75;;;18.32;34.71
63665;BME280;49820;33.966;73.390;2023-04-10T05:48:17;79178.19;;;19.02;40.33
63665;BME280;49820;33.966;73.390;2023-04-10T05:51:04;79196.84;;;19.55;34.66
63665;BME280;49820;33.966;73.390;2023-04-10T05:54:08;79195.66;;;20.10;36.10
63665;BME280;49820;33.966;73.390;2023-04-10T05:57:12;79179.75;;;20.17;35.40
63665;BME280;49820;33.966;73.390;2023-04-10T06:00:01;79177.44;;;21.06;33.27
63665;BME280;49820;33.966;73.390;2023-04-10T06:02:48;79213.41;;;21.33;34.22
63665;BME280;49820;33.966;73.390;2023-04-10T06:05:53;79195.28;;;22.21;30.80
63665;BME280;49820;33.966;73.390;2023-04-10T06:08:22;79158.56;;;21.82;31.17
63665;BME280;49820;33.966;73.390;2023-04-10T06:11:25;79186.84;;;23.11;33.00
63665;BME280;49820;33.966;73.390;2023-04-10T06:13:56;79198.41;;;22.38;29.76
63665;BME280;49820;33.966;73.390;2023-04-10T06:17:00;79189.25;;;22.43;29.73
63665;BME280;49820;33.966;73.390;2023-04-10T06:19:48;79199.97;;;22.96;38.16
63665;BME280;49820;33.966;73.390;2023-04-10T06:22:52;79193.34;;;23.52;33.47
63665;BME280;49820;33.966;73.390;2023-04-10T06:25:56;79201.66;;;23.74;33.27
63665;BME280;49820;33.966;73.390;2023-04-10T06:28:44;79196.06;;;23.76;33.06
63665;BME280;49820;33.966;73.390;2023-04-10T06:31:48;79185.78;;;24.78;29.43
63665;BME280;49820;33.966;73.390;2023-04-10T06:34:19;79194.53;;;23.79;27.53
63665;BME280;49820;33.966;73.390;2023-04-10T06:37:07;79163.91;;;23.19;28.43
63665;BME280;49820;33.966;73.390;2023-04-10T06:40:13;79198.47;;;24.16;29.35
63665;BME280;49820;33.966;73.390;2023-04-10T06:42:43;79180.25;;;24.12;28.62
63665;BME280;49820;33.966;73.390;2023-04-10T06:45:47;79172.50;;;23.93;28.84
63665;BME280;49820;33.966;73.390;2023-04-10T06:48:16;79173.47;;;23.77;28.38
63665;BME280;49820;33.966;73.390;2023-04-10T06:51:19;79170.94;;;23.63;27.74
63665;BME280;49820;33.966;73.390;2023-04-10T06:53:48;79174.66;;;24.14;33.32
63665;BME280;49820;33.966;73.390;2023-04-10T06:56:18;79177.84;;;23.02;28.07
63665;BME280;49820;33.966;73.390;2023-04-10T06:59:05;79169.53;;;23.28;30.09
63665;BME280;49820;33.966;73.390;2023-04-10T07:02:08;79171.41;;;23.78;28.74
63665;BME280;49820;33.966;73.390;2023-04-10T07:04:38;79163.69;;;23.23;27.96
63665;BME280;49820;33.966;73.390;2023-04-10T07:07:07;79150.88;;;23.32;31.83
63665;BME280;49820;33.966;73.390;2023-04-10T07:09:55;79166.25;;;23.61;28.56
63665;BME280;49820;33.966;73.390;2023-04-10T07:12:42;79181.78;;;23.75;27.71
63665;BME280;49820;33.966;73.390;2023-04-10T07:15:45;79164.47;;;23.91;29.39
63665;BME280;49820;33.966;73.390;2023-04-10T07:18:14;79182.44;;;24.99;26.08
63665;BME280;49820;33.966;73.390;2023-04-10T07:20:43;79142.13;;;24.44;25.19
63665;BME280;49820;33.966;73.390;2023-04-10T07:23:13;79169.78;;;25.57;29.77
63665;BME280;49820;33.966;73.390;2023-04-10T07:25:42;79178.25;;;25.85;33.20
63665;BME280;49820;33.966;73.390;2023-04-10T07:28:47;79160.41;;;24.80;31.70
63665;BME280;49820;33.966;73.390;2023-04-10T07:31:22;79152.56;;;24.63;27.97
63665;BME280;49820;33.966;73.390;2023-04-10T07:34:26;79178.56;;;25.28;30.29
63665;BME280;49820;33.966;73.390;2023-04-10T07:36:55;79140.13;;;25.08;32.10
63665;BME280;49820;33.966;73.390;2023-04-10T07:39:58;79175.00;;;26.34;26.00
63665;BME280;49820;33.966;73.390;2023-04-10T07:42:29;79151.69;;;25.73;31.60
63665;BME280;49820;33.966;73.390;2023-04-10T07:45:34;79160.03;;;25.50;24.35
63665;BME280;49820;33.966;73.390;2023-04-10T07:48:03;79145.00;;;25.80;28.71
63665;BME280;49820;33.966;73.390;2023-04-10T07:51:08;79166.63;;;26.36;28.45
63665;BME280;49820;33.966;73.390;2023-04-10T07:54:13;79138.78;;;26.52;28.61
63665;BME280;49820;33.966;73.390;2023-04-10T07:57:19;79151.03;;;25.51;27.62
63665;BME280;49820;33.966;73.390;2023-04-10T07:59:48;79157.56;;;25.67;25.84
63665;BME280;49820;33.966;73.390;2023-04-10T08:02:17;79138.41;;;26.48;30.15
63665;BME280;49820;33.966;73.390;2023-04-10T08:05:05;79162.88;;;26.60;25.22
63665;BME280;49820;33.966;73.390;2023-04-10T08:08:09;79144.72;;;26.36;23.51
63665;BME280;49820;33.966;73.390;2023-04-10T08:11:27;79159.47;;;26.41;25.57
63665;BME280;49820;33.966;73.390;2023-04-10T08:14:32;79150.78;;;26.77;33.32
63665;BME280;49820;33.966;73.390;2023-04-10T08:17:35;79137.88;;;25.75;26.96
63665;BME280;49820;33.966;73.390;2023-04-10T08:20:05;79139.81;;;25.76;25.60
63665;BME280;49820;33.966;73.390;2023-04-10T08:23:09;79147.94;;;25.25;25.40
63665;BME280;49820;33.966;73.390;2023-04-10T08:26:13;79155.19;;;25.71;27.25
63665;BME280;49820;33.966;73.390;2023-04-10T08:28:43;79165.13;;;25.02;27.04
63665;BME280;49820;33.966;73.390;2023-04-10T08:31:49;79144.81;;;24.99;27.42
63665;BME280;49820;33.966;73.390;2023-04-10T08:34:53;79147.94;;;24.93;29.24
63665;BME280;49820;33.966;73.390;2023-04-10T08:37:22;79143.66;;;26.01;26.15
63665;BME280;49820;33.966;73.390;2023-04-10T08:40:26;79156.41;;;25.32;33.92
63665;BME280;49820;33.966;73.390;2023-04-10T08:42:56;79126.53;;;25.70;29.51
63665;BME280;49820;33.966;73.390;2023-04-10T08:46:00;79128.53;;;25.29;27.57
63665;BME280;49820;33.966;73.390;2023-04-10T08:49:05;79142.84;;;24.98;24.36
63665;BME280;49820;33.966;73.390;2023-04-10T08:52:16;79143.66;;;24.96;27.27
63665;BME280;49820;33.966;73.390;2023-04-10T08:55:23;79133.91;;;23.89;25.63
63665;BME280;49820;33.966;73.390;2023-04-10T08:57:53;79108.50;;;25.01;25.25
63665;BME280;49820;33.966;73.390;2023-04-10T09:00:46;79127.91;;;23.86;24.96
63665;BME280;49820;33.966;73.390;2023-04-10T09:03:50;79113.22;;;23.92;26.12
63665;BME280;49820;33.966;73.390;2023-04-10T09:06:19;79114.44;;;23.61;26.39
63665;BME280;49820;33.966;73.390;2023-04-10T09:09:23;79115.97;;;23.92;27.00
63665;BME280;49820;33.966;73.390;2023-04-10T09:12:27;79120.97;;;24.87;28.41
63665;BME280;49820;33.966;73.390;2023-04-10T09:14:56;79117.66;;;24.42;25.03
63665;BME280;49820;33.966;73.390;2023-04-10T09:18:02;79089.50;;;24.12;25.55
63665;BME280;49820;33.966;73.390;2023-04-10T09:20:31;79110.69;;;24.88;26.08
63665;BME280;49820;33.966;73.390;2023-04-10T09:23:35;79099.00;;;25.21;28.42
63665;BME280;49820;33.966;73.390;2023-04-10T09:26:30;79113.03;;;25.15;24.49
63665;BME280;49820;33.966;73.390;2023-04-10T09:29:44;79102.31;;;24.26;26.61
63665;BME280;49820;33.966;73.390;2023-04-10T09:32:48;79088.03;;;24.89;26.83
63665;BME280;49820;33.966;73.390;2023-04-10T09:35:52;79057.59;;;24.53;27.02
63665;BME280;49820;33.966;73.390;2023-04-10T09:38:39;79085.16;;;24.38;25.14
63665;BME280;49820;33.966;73.390;2023-04-10T09:42:01;79088.97;;;24.64;29.24
63665;BME280;49820;33.966;73.390;2023-04-10T09:45:05;79092.41;;;25.48;26.92
63665;BME280;49820;33.966;73.390;2023-04-10T09:48:04;79081.31;;;25.71;26.87
63665;BME280;49820;33.966;73.390;2023-04-10T09:51:27;79064.09;;;25.00;26.76
63665;BME280;49820;33.966;73.390;2023-04-10T09:54:37;79052.78;;;24.21;24.70
63665;BME280;49820;33.966;73.390;2023-04-10T09:57:41;79065.28;;;24.50;25.43
63665;BME280;49820;33.966;73.390;2023-04-10T10:00:29;79068.69;;;24.93;26.58
63665;BME280;49820;33.966;73.390;2023-04-10T10:03:18;79078.06;;;24.96;25.81
63665;BME280;49820;33.966;73.390;2023-04-10T10:06:23;79063.78;;;24.19;26.29
63665;BME280;49820;33.966;73.390;2023-04-10T10:08:54;79057.72;;;24.29;30.08
63665;BME280;49820;33.966;73.390;2023-04-10T10:11:59;79056.56;;;23.82;25.11
63665;BME280;49820;33.966;73.390;2023-04-10T10:14:59;79051.03;;;24.05;28.32
63665;BME280;49820;33.966;73.390;2023-04-10T10:21:13;79059.09;;;23.63;27.01
63665;BME280;49820;33.966;73.390;2023-04-10T10:24:23;79062.13;;;24.35;28.11
63665;BME280;49820;33.966;73.390;2023-04-10T10:27:35;79044.72;;;24.30;27.97
63665;BME280;49820;33.966;73.390;2023-04-10T10:30:05;79066.81;;;24.58;29.89
63665;BME280;49820;33.966;73.390;2023-04-10T10:33:11;79046.03;;;24.31;26.81
63665;BME280;49820;33.966;73.390;2023-04-10T10:36:16;79050.00;;;23.32;27.34
63665;BME280;49820;33.966;73.390;2023-04-10T10:39:37;79039.28;;;23.75;27.52
63665;BME280;49820;33.966;73.390;2023-04-10T10:42:29;79033.06;;;23.42;31.06
63665;BME280;49820;33.966;73.390;2023-04-10T10:46:02;79054.78;;;22.74;30.70
63665;BME280;49820;33.966;73.390;2023-04-10T10:48:32;79038.13;;;22.68;28.43
63665;BME280;49820;33.966;73.390;2023-04-10T10:51:49;79043.31;;;22.72;29.74
63665;BME280;49820;33.966;73.390;2023-04-10T10:54:53;79056.50;;;23.03;29.84
63665;BME280;49820;33.966;73.390;2023-04-10T10:57:58;79047.81;;;22.77;29.53
63665;BME280;49820;33.966;73.390;2023-04-10T11:01:04;79025.16;;;22.68;30.88
63665;BME280;49820;33.966;73.390;2023-04-10T11:05:00;79046.38;;;23.02;29.83
63665;BME280;49820;33.966;73.390;2023-04-10T11:11:08;79033.81;;;21.25;30.08
63665;BME280;49820;33.966;73.390;2023-04-10T11:14:15;79029.75;;;20.86;30.19
63665;BME280;49820;33.966;73.390;2023-04-10T11:17:49;79036.38;;;20.89;31.17
63665;BME280;49820;33.966;73.390;2023-04-10T11:21:19;79046.28;;;21.07;31.92
63665;BME280;49820;33.966;73.390;2023-04-10T11:24:23;79017.91;;;20.79;33.75
63665;BME280;49820;33.966;73.390;2023-04-10T11:28:00;79027.50;;;21.28;31.86
63665;BME280;49820;33.966;73.390;2023-04-10T11:36:56;79041.53;;;20.55;32.58
63665;BME280;49820;33.966;73.390;2023-04-10T11:40:04;79034.47;;;20.60;33.14
63665;BME280;49820;33.966;73.390;2023-04-10T11:43:12;79034.41;;;20.07;34.05
63665;BME280;49820;33.966;73.390;2023-04-10T11:46:01;79034.03;;;19.73;33.93
63665;BME280;49820;33.966;73.390;2023-04-10T11:49:07;79028.09;;;19.56;35.24
63665;BME280;49820;33.966;73.390;2023-04-10T11:52:12;79041.19;;;19.52;35.26
63665;BME280;49820;33.966;73.390;2023-04-10T11:55:16;79033.81;;;19.50;36.91
63665;BME280;49820;33.966;73.390;2023-04-10T11:57:45;79023.69;;;18.46;36.69
63665;BME280;49820;33.966;73.390;2023-04-10T12:01:03;79038.66;;;18.74;37.08
63665;BME280;49820;33.966;73.390;2023-04-10T12:04:17;79037.75;;;18.34;37.45
63665;BME280;49820;33.966;73.390;2023-04-10T12:07:23;79032.34;;;18.02;37.74
63665;BME280;49820;33.966;73.390;2023-04-10T12:10:44;79022.44;;;17.65;38.71
63665;BME280;49820;33.966;73.390;2023-04-10T12:13:54;79035.03;;;17.37;39.24
63665;BME280;49820;33.966;73.390;2023-04-10T12:16:59;79026.38;;;17.01;40.02
63665;BME280;49820;33.966;73.390;2023-04-10T12:19:29;79042.69;;;16.64;41.97
63665;BME280;49820;33.966;73.390;2023-04-10T12:22:33;79045.41;;;16.45;43.10
63665;BME280;49820;33.966;73.390;2023-04-10T12:25:38;79048.97;;;16.39;42.40
63665;BME280;49820;33.966;73.390;2023-04-10T12:28:52;79047.91;;;16.14;44.05
63665;BME280;49820;33.966;73.390;2023-04-10T12:31:33;79019.91;;;15.88;44.39
63665;BME280;49820;33.966;73.390;2023-04-10T12:34:37;79048.34;;;15.83;47.67
63665;BME280;49820;33.966;73.390;2023-04-10T12:37:07;79022.22;;;15.60;47.09
63665;BME280;49820;33.966;73.390;2023-04-10T12:40:14;79013.06;;;15.53;47.00
63665;BME280;49820;33.966;73.390;2023-04-10T12:43:32;79033.44;;;15.67;45.75
63665;BME280;49820;33.966;73.390;2023-04-10T12:46:36;79022.16;;;15.62;46.71
63665;BME280;49820;33.966;73.390;2023-04-10T12:49:40;79052.72;;;15.74;49.01
63665;BME280;49820;33.966;73.390;2023-04-10T12:52:45;79065.72;;;15.48;48.68
63665;BME280;49820;33.966;73.390;2023-04-10T12:56:04;79035.50;;;15.06;49.30
63665;BME280;49820;33.966;73.390;2023-04-10T12:59:08;79057.63;;;15.09;50.28
63665;BME280;49820;33.966;73.390;2023-04-10T13:01:38;79074.34;;;15.11;50.95
63665;BME280;49820;33.966;73.390;2023-04-10T13:04:07;79051.84;;;14.79;52.31
63665;BME280;49820;33.966;73.390;2023-04-10T13:06:55;79037.75;;;14.58;51.36
63665;BME280;49820;33.966;73.390;2023-04-10T13:09:59;79080.06;;;14.80;52.62
63665;BME280;49820;33.966;73.390;2023-04-10T13:13:04;79062.47;;;14.63;52.84
63665;BME280;49820;33.966;73.390;2023-04-10T13:15:34;79060.66;;;14.34;53.67
63665;BME280;49820;33.966;73.390;2023-04-10T13:18:38;79055.28;;;14.11;53.25
63665;BME280;49820;33.966;73.390;2023-04-10T13:21:07;79075.34;;;14.14;53.76
63665;BME280;49820;33.966;73.390;2023-04-10T13:24:11;79040.50;;;13.90;52.84
63665;BME280;49820;33.966;73.390;2023-04-10T13:26:43;79056.56;;;13.92;53.62
63665;BME280;49820;33.966;73.390;2023-04-10T13:29:47;79064.25;;;13.81;53.20
63665;BME280;49820;33.966;73.390;2023-04-10T13:32:50;79065.84;;;13.72;53.77
63665;BME280;49820;33.966;73.390;2023-04-10T13:35:20;79059.59;;;13.57;53.26
63665;BME280;49820;33.966;73.390;2023-04-10T13:37:49;79061.84;;;13.48;54.00
63665;BME280;49820;33.966;73.390;2023-04-10T13:40:39;79065.78;;;13.51;53.90
63665;BME280;49820;33.966;73.390;2023-04-10T13:43:43;79070.91;;;13.36;53.94
63665;BME280;49820;33.966;73.390;2023-04-10T13:46:12;78952.72;;;12.43;54.52
63665;BME280;49820;33.966;73.390;2023-04-10T13:49:16;79058.59;;;13.21;54.41
63665;BME280;49820;33.966;73.390;2023-04-10T13:52:20;79053.69;;;13.03;55.38
63665;BME280;49820;33.966;73.390;2023-04-10T13:55:24;79075.22;;;12.98;56.08
63665;BME280;49820;33.966;73.390;2023-04-10T13:57:53;79030.63;;;12.62;55.30
63665;BME280;49820;33.966;73.390;2023-04-10T14:00:22;79078.78;;;12.91;55.27
63665;BME280;49820;33.966;73.390;2023-04-10T14:03:09;79086.34;;;12.84;55.39
63665;BME280;49820;33.966;73.390;2023-04-10T14:06:14;79058.03;;;12.65;55.05
63665;BME280;49820;33.966;73.390;2023-04-10T14:09:18;79042.91;;;12.53;54.66
63665;BME280;49820;33.966;73.390;2023-04-10T14:12:05;79093.50;;;12.92;54.46
63665;BME280;49820;33.966;73.390;2023-04-10T14:14:35;79063.59;;;12.56;54.58
63665;BME280;49820;33.966;73.390;2023-04-10T14:17:05;79059.59;;;12.55;53.56
63665;BME280;49820;33.966;73.390;2023-04-10T14:19:52;79087.81;;;12.79;52.82
63665;BME280;49820;33.966;73.390;2023-04-10T14:22:56;79095.00;;;12.87;52.43
63665;BME280;49820;33.966;73.390;2023-04-10T14:26:00;79081.28;;;12.72;49.03
63665;BME280;49820;33.966;73.390;2023-04-10T14:29:04;79107.47;;;12.96;49.21
63665;BME280;49820;33.966;73.390;2023-04-10T14:31:36;79116.41;;;12.89;49.83
63665;BME280;49820;33.966;73.390;2023-04-10T14:34:39;79042.44;;;12.44;46.21
63665;BME280;49820;33.966;73.390;2023-04-10T14:37:09;79094.78;;;12.68;46.85
63665;BME280;49820;33.966;73.390;2023-04-10T14:39:58;79090.72;;;12.42;48.58
63665;BME280;49820;33.966;73.390;2023-04-10T14:43:02;79089.66;;;12.02;49.37
63665;BME280;49820;33.966;73.390;2023-04-10T14:46:07;79103.38;;;11.88;50.21
63665;BME280;49820;33.966;73.390;2023-04-10T14:48:36;79088.00;;;11.56;48.76
63665;BME280;49820;33.966;73.390;2023-04-10T14:51:44;79099.00;;;11.41;51.09
63665;BME280;49820;33.966;73.390;2023-04-10T14:54:13;79112.13;;;11.54;51.13
63665;BME280;49820;33.966;73.390;2023-04-10T14:57:19;79108.34;;;11.42;50.37
63665;BME280;49820;33.966;73.390;2023-04-10T15:00:23;79083.31;;;11.25;50.18
63665;BME280;49820;33.966;73.390;2023-04-10T15:02:54;79123.69;;;11.44;50.98
63665;BME280;49820;33.966;73.390;2023-04-10T15:05:59;79107.41;;;11.23;52.09
63665;BME280;49820;33.966;73.390;2023-04-10T15:09:04;79126.00;;;11.29;52.85
63665;BME280;49820;33.966;73.390;2023-04-10T15:11:34;79094.97;;;11.09;50.91
63665;BME280;49820;33.966;73.390;2023-04-10T15:14:37;79131.94;;;11.34;52.02
63665;BME280;49820;33.966;73.390;2023-04-10T15:17:41;79104.38;;;11.06;50.85
63665;BME280;49820;33.966;73.390;2023-04-10T15:20:29;79117.69;;;11.11;52.87
63665;BME280;49820;33.966;73.390;2023-04-10T15:23:16;79122.13;;;11.22;54.25
63665;BME280;49820;33.966;73.390;2023-04-10T15:29:43;79119.41;;;11.24;53.26
63665;BME280;49820;33.966;73.390;2023-04-10T15:32:30;79125.25;;;11.33;53.73
63665;BME280;49820;33.966;73.390;2023-04-10T15:35:18;79085.78;;;11.02;52.53
63665;BME280;49820;33.966;73.390;2023-04-10T15:38:05;79118.47;;;11.38;53.09
63665;BME280;49820;33.966;73.390;2023-04-10T15:41:27;79127.16;;;11.38;52.86
63665;BME280;49820;33.966;73.390;2023-04-10T15:44:16;79105.25;;;11.30;52.70
63665;BME280;49820;33.966;73.390;2023-04-10T15:47:03;79101.69;;;11.41;50.77
63665;BME280;49820;33.966;73.390;2023-04-10T15:50:07;79141.91;;;12.01;49.19
63665;BME280;49820;33.966;73.390;2023-04-10T15:52:37;79130.13;;;12.19;48.29
63665;BME280;49820;33.966;73.390;2023-04-10T15:55:41;79133.84;;;12.32;48.18
63665;BME280;49820;33.966;73.390;2023-04-10T15:58:10;79134.75;;;12.22;49.58
63665;BME280;49820;33.966;73.390;2023-04-10T16:01:14;79157.75;;;12.11;50.43
63665;BME280;49820;33.966;73.390;2023-04-10T16:03:43;79153.19;;;12.06;49.27
63665;BME280;49820;33.966;73.390;2023-04-10T16:06:47;79127.81;;;12.03;50.25
63665;BME280;49820;33.966;73.390;2023-04-10T16:09:34;79111.59;;;12.09;48.22
63665;BME280;49820;33.966;73.390;2023-04-10T16:12:40;79161.91;;;12.35;50.51
63665;BME280;49820;33.966;73.390;2023-04-10T16:15:09;79159.03;;;12.43;49.32
63665;BME280;49820;33.966;73.390;2023-04-10T16:17:38;79149.38;;;12.26;49.69
63665;BME280;49820;33.966;73.390;2023-04-10T16:20:26;79144.94;;;12.16;50.58
63665;BME280;49820;33.966;73.390;2023-04-10T16:23:30;79141.50;;;12.19;48.97
63665;BME280;49820;33.966;73.390;2023-04-10T16:25:59;79141.97;;;12.28;48.32
63665;BME280;49820;33.966;73.390;2023-04-10T16:29:03;79118.78;;;11.88;49.94
63665;BME280;49820;33.966;73.390;2023-04-10T16:31:32;79168.13;;;12.26;49.84
63665;BME280;49820;33.966;73.390;2023-04-10T16:34:01;79130.44;;;11.74;49.69
63665;BME280;49820;33.966;73.390;2023-04-10T16:36:49;79142.50;;;11.73;49.60
63665;BME280;49820;33.966;73.390;2023-04-10T16:39:52;79146.84;;;11.58;50.57
63665;BME280;49820;33.966;73.390;2023-04-10T16:42:23;79138.81;;;11.58;49.83
63665;BME280;49820;33.966;73.390;2023-04-10T16:44:52;79151.38;;;11.63;50.90
63665;BME280;49820;33.966;73.390;2023-04-10T16:47:40;79164.47;;;11.79;49.76
63665;BME280;49820;33.966;73.390;2023-04-10T16:50:46;79162.91;;;11.91;50.19
63665;BME280;49820;33.966;73.390;2023-04-10T16:53:50;79160.25;;;11.89;50.16
63665;BME280;49820;33.966;73.390;2023-04-10T16:56:54;79138.00;;;11.63;49.10
63665;BME280;49820;33.966;73.390;2023-04-10T16:59:58;79172.00;;;12.02;48.37
63665;BME280;49820;33.966;73.390;2023-04-10T17:03:04;79170.81;;;11.95;49.09
63665;BME280;49820;33.966;73.390;2023-04-10T17:06:08;79160.38;;;11.82;49.17
63665;BME280;49820;33.966;73.390;2023-04-10T17:09:11;79132.97;;;11.49;49.53
63665;BME280;49820;33.966;73.390;2023-04-10T17:11:41;79161.16;;;11.77;49.85
63665;BME280;49820;33.966;73.390;2023-04-10T17:14:11;79148.50;;;11.75;49.08
63665;BME280;49820;33.966;73.390;2023-04-10T17:17:15;79149.59;;;11.87;47.87
63665;BME280;49820;33.966;73.390;2023-04-10T17:20:19;79160.94;;;11.87;48.42
63665;BME280;49820;33.966;73.390;2023-04-10T17:23:23;79156.47;;;11.77;48.86
63665;BME280;49820;33.966;73.390;2023-04-10T17:26:27;79157.44;;;11.62;49.15
63665;BME280;49820;33.966;73.390;2023-04-10T17:29:39;79169.50;;;11.61;49.15